createdAt,value
2023-01-27T00:02:04.771Z,9.05
2023-01-27T00:04:09.559Z,9.38
2023-01-27T00:06:14.789Z,9.95
2023-01-27T00:08:22.364Z,9.88
2023-01-27T00:10:28.275Z,9.73
2023-01-27T00:12:45.503Z,9.85
2023-01-27T00:14:50.350Z,10.20
2023-01-27T00:16:55.441Z,11.18
2023-01-27T00:21:17.303Z,9.32
2023-01-27T00:23:40.821Z,11.38
2023-01-27T00:25:50.339Z,10.13
2023-01-27T00:27:55.415Z,10.07
2023-01-27T00:32:17.502Z,9.95
2023-01-27T00:34:22.353Z,9.68
2023-01-27T00:36:27.253Z,10.43
2023-01-27T00:38:40.830Z,9.77
2023-01-27T00:41:08.813Z,10.25
2023-01-27T00:43:13.621Z,9.95
2023-01-27T00:45:31.084Z,11.32
2023-01-27T00:47:36.055Z,11.70
2023-01-27T00:49:40.902Z,10.82
2023-01-27T00:51:45.890Z,11.50
2023-01-27T00:53:53.422Z,11.32
2023-01-27T00:55:58.340Z,10.45
2023-01-27T00:58:03.324Z,10.13
2023-01-27T01:00:10.135Z,11.35
2023-01-27T01:02:15.068Z,11.30
2023-01-27T01:04:19.877Z,11.27
2023-01-27T01:06:25.032Z,12.43
2023-01-27T01:10:37.286Z,11.60
2023-01-27T01:12:42.103Z,11.35
2023-01-27T01:14:46.954Z,11.60
2023-01-27T01:16:51.817Z,10.68
2023-01-27T01:18:57.122Z,11.07
2023-01-27T01:21:02.051Z,11.55
2023-01-27T01:23:07.185Z,12.45
2023-01-27T01:25:12.955Z,13.48
2023-01-27T01:27:20.396Z,12.63
2023-01-27T01:29:25.212Z,11.85
2023-01-27T01:31:31.157Z,12.40
2023-01-27T01:33:36.099Z,10.77
2023-01-27T01:35:42.068Z,13.25
2023-01-27T01:37:47.315Z,12.77
2023-01-27T01:39:52.400Z,11.85
2023-01-27T01:41:57.245Z,12.05
2023-01-27T01:44:27.542Z,11.80
2023-01-27T01:46:32.377Z,12.80
2023-01-27T01:48:41.061Z,11.52
2023-01-27T01:50:51.199Z,13.05
2023-01-27T01:52:57.480Z,12.25
2023-01-27T01:55:02.337Z,12.73
2023-01-27T01:57:12.189Z,10.48
2023-01-27T01:59:20.590Z,12.13
2023-01-27T02:01:28.033Z,13.00
2023-01-27T02:03:33.515Z,12.68
2023-01-27T02:05:43.007Z,13.55
2023-01-27T02:07:56.988Z,13.25
2023-01-27T02:10:04.752Z,12.63
2023-01-27T02:12:14.137Z,13.32
2023-01-27T02:14:20.483Z,13.05
2023-01-27T02:16:28.020Z,13.75
2023-01-27T02:18:33.140Z,13.15
2023-01-27T02:22:58.530Z,13.93
2023-01-27T02:25:11.727Z,13.73
2023-01-27T02:27:19.361Z,13.85
2023-01-27T02:29:24.740Z,13.98
2023-01-27T02:31:30.438Z,15.88
2023-01-27T02:33:35.422Z,15.57
2023-01-27T02:35:45.671Z,14.30
2023-01-27T02:37:53.075Z,14.02
2023-01-27T02:40:00.633Z,14.52
2023-01-27T02:42:08.645Z,15.10
2023-01-27T02:44:16.737Z,13.90
2023-01-27T02:46:22.180Z,14.48
2023-01-27T02:48:26.999Z,15.55
2023-01-27T02:50:32.206Z,13.40
2023-01-27T02:54:41.778Z,15.20
2023-01-27T02:56:46.614Z,15.32
2023-01-27T02:58:53.958Z,13.95
2023-01-27T03:01:08.107Z,14.85
2023-01-27T03:03:13.259Z,16.00
2023-01-27T03:05:19.019Z,15.82
2023-01-27T03:07:23.896Z,13.70
2023-01-27T03:09:28.834Z,15.40
2023-01-27T03:11:46.180Z,17.38
2023-01-27T03:13:51.180Z,17.30
2023-01-27T03:16:11.564Z,16.20
2023-01-27T03:18:18.321Z,16.50
2023-01-27T03:20:23.349Z,15.43
2023-01-27T03:22:28.681Z,15.95
2023-01-27T03:24:33.646Z,16.67
2023-01-27T03:26:43.173Z,16.15
2023-01-27T03:29:10.799Z,16.85
2023-01-27T03:31:24.551Z,16.35
2023-01-27T03:33:43.166Z,15.25
2023-01-27T03:36:26.183Z,15.48
2023-01-27T03:38:44.390Z,14.48
2023-01-27T03:41:01.885Z,16.77
2023-01-27T03:43:19.299Z,15.68
2023-01-27T03:45:36.621Z,16.98
2023-01-27T03:47:41.850Z,16.40
2023-01-27T03:49:49.201Z,15.48
2023-01-27T03:51:54.141Z,15.57
2023-01-27T03:54:01.074Z,17.23
2023-01-27T03:56:06.660Z,16.10
2023-01-27T03:58:21.252Z,15.27
2023-01-27T04:00:26.749Z,14.52
2023-01-27T04:02:43.990Z,15.55
2023-01-27T04:05:03.978Z,15.70
2023-01-27T04:07:09.829Z,14.23
2023-01-27T04:09:16.325Z,14.52
2023-01-27T04:11:33.643Z,14.48
2023-01-27T04:13:38.884Z,14.18
2023-01-27T04:17:48.422Z,13.25
2023-01-27T04:19:55.844Z,12.38
2023-01-27T04:22:01.781Z,12.90
2023-01-27T04:24:08.801Z,12.27
2023-01-27T04:26:13.683Z,11.93
2023-01-27T04:28:29.151Z,12.38
2023-01-27T04:30:42.328Z,12.30
2023-01-27T04:32:47.134Z,12.02
2023-01-27T04:34:52.135Z,12.20
2023-01-27T04:36:59.926Z,11.82
2023-01-27T04:39:04.775Z,11.90
2023-01-27T04:41:11.852Z,11.40
2023-01-27T04:45:25.494Z,11.35
2023-01-27T04:47:30.476Z,10.95
2023-01-27T04:49:35.307Z,11.50
2023-01-27T04:51:40.298Z,11.45
2023-01-27T04:53:47.732Z,11.13
2023-01-27T04:55:53.078Z,11.18
2023-01-27T04:57:57.882Z,10.48
2023-01-27T05:00:02.789Z,10.95
2023-01-27T05:02:08.191Z,10.82
2023-01-27T05:04:13.057Z,10.80
2023-01-27T05:06:18.661Z,10.40
2023-01-27T05:08:23.475Z,12.10
2023-01-27T05:10:30.826Z,9.98
2023-01-27T05:12:35.964Z,10.52
2023-01-27T05:14:40.757Z,11.60
2023-01-27T05:16:45.787Z,10.90
2023-01-27T05:18:51.981Z,10.13
2023-01-27T05:20:56.832Z,9.82
2023-01-27T05:23:13.827Z,10.52
2023-01-27T05:25:18.926Z,10.30
2023-01-27T05:29:31.165Z,11.15
2023-01-27T05:31:35.974Z,10.95
2023-01-27T05:33:42.323Z,11.60
2023-01-27T05:35:47.144Z,10.93
2023-01-27T05:37:51.984Z,11.60
2023-01-27T05:39:56.773Z,12.20
2023-01-27T05:42:01.625Z,12.13
2023-01-27T05:44:09.219Z,13.75
2023-01-27T05:46:15.840Z,12.45
2023-01-27T05:48:20.869Z,12.60
2023-01-27T05:52:30.312Z,12.90
2023-01-27T05:54:35.128Z,13.40
2023-01-27T05:56:40.854Z,11.80
2023-01-27T05:58:46.357Z,11.15
2023-01-27T06:00:54.144Z,12.48
2023-01-27T06:02:59.013Z,12.15
2023-01-27T06:05:03.795Z,12.00
2023-01-27T06:07:08.586Z,12.23
2023-01-27T06:09:13.612Z,13.63
2023-01-27T06:11:19.989Z,13.10
2023-01-27T06:13:26.011Z,13.10
2023-01-27T06:15:30.857Z,12.43
2023-01-27T06:17:38.214Z,11.63
2023-01-27T06:19:43.020Z,11.85
2023-01-27T06:21:47.827Z,11.82
2023-01-27T06:23:53.648Z,11.25
2023-01-27T06:25:59.450Z,12.05
2023-01-27T06:28:04.499Z,12.20
2023-01-27T06:30:11.071Z,13.38
2023-01-27T06:32:15.839Z,13.02
2023-01-27T06:34:23.446Z,12.95
2023-01-27T06:36:28.268Z,11.95
2023-01-27T06:38:33.122Z,12.98
2023-01-27T06:40:38.639Z,12.75
2023-01-27T06:42:46.108Z,12.18
2023-01-27T06:44:50.982Z,12.32
2023-01-27T06:46:55.779Z,11.10
2023-01-27T06:49:00.543Z,13.07
2023-01-27T06:51:08.378Z,11.82
2023-01-27T06:53:13.571Z,12.32
2023-01-27T06:57:24.091Z,12.05
2023-01-27T06:59:29.093Z,12.35
2023-01-27T07:01:33.976Z,12.48
2023-01-27T07:05:44.977Z,11.85
2023-01-27T07:07:52.360Z,12.45
2023-01-27T07:09:57.195Z,10.75
2023-01-27T07:12:01.969Z,10.50
2023-01-27T07:14:07.970Z,12.43
2023-01-27T07:16:14.533Z,13.68
2023-01-27T07:18:19.889Z,42.85
2023-01-27T07:20:28.223Z,25.00
2023-01-27T07:22:33.131Z,15.85
2023-01-27T07:24:40.503Z,15.93
2023-01-27T07:26:47.551Z,12.45
2023-01-27T07:28:52.532Z,11.10
2023-01-27T07:30:57.428Z,13.98
2023-01-27T07:33:06.634Z,16.60
2023-01-27T07:35:11.798Z,11.70
2023-01-27T07:37:17.073Z,12.05
2023-01-27T07:39:22.449Z,12.50
2023-01-27T07:41:29.790Z,11.02
2023-01-27T07:43:34.787Z,12.18
2023-01-27T07:45:44.302Z,11.38
2023-01-27T07:47:49.253Z,11.90
2023-01-27T07:49:54.039Z,11.55
2023-01-27T07:51:58.919Z,12.63
2023-01-27T07:54:03.714Z,12.23
2023-01-27T07:56:12.081Z,10.82
2023-01-27T07:58:19.630Z,12.18
2023-01-27T08:00:25.115Z,10.80
2023-01-27T08:02:31.727Z,12.10
2023-01-27T08:04:47.206Z,12.52
2023-01-27T08:06:57.131Z,10.75
2023-01-27T08:09:02.264Z,11.60
2023-01-27T08:11:10.484Z,12.02
2023-01-27T08:13:15.373Z,12.13
2023-01-27T08:15:22.790Z,11.23
2023-01-27T08:17:27.694Z,11.77
2023-01-27T08:19:32.489Z,10.18
2023-01-27T08:21:37.295Z,10.57
2023-01-27T08:23:42.091Z,12.32
2023-01-27T08:25:52.219Z,11.35
2023-01-27T08:27:58.939Z,10.63
2023-01-27T08:30:03.779Z,10.88
2023-01-27T08:32:14.162Z,11.35
2023-01-27T08:34:20.023Z,12.88
2023-01-27T08:36:26.055Z,15.13
2023-01-27T08:38:30.908Z,13.85
2023-01-27T08:40:35.997Z,14.13
2023-01-27T08:42:40.843Z,12.50
2023-01-27T08:44:46.148Z,11.93
2023-01-27T08:46:51.110Z,11.32
2023-01-27T08:48:58.530Z,10.23
2023-01-27T08:51:04.834Z,10.90
2023-01-27T08:53:09.684Z,10.75
2023-01-27T08:55:15.575Z,9.68
2023-01-27T08:57:20.345Z,10.88
2023-01-27T08:59:25.274Z,10.45
2023-01-27T09:01:30.393Z,10.65
2023-01-27T09:05:44.219Z,10.48
2023-01-27T09:07:49.388Z,10.98
2023-01-27T09:10:07.722Z,11.65
2023-01-27T09:12:18.382Z,9.90
2023-01-27T09:14:23.153Z,11.00
2023-01-27T09:16:28.126Z,11.10
2023-01-27T09:18:32.998Z,12.02
2023-01-27T09:20:37.858Z,10.68
2023-01-27T09:22:45.644Z,11.43
2023-01-27T09:24:50.441Z,11.40
2023-01-27T09:26:55.244Z,10.45
2023-01-27T09:29:00.331Z,11.27
2023-01-27T09:31:05.241Z,11.60
2023-01-27T09:33:10.347Z,11.18
2023-01-27T09:35:15.486Z,10.60
2023-01-27T09:37:21.484Z,10.55
2023-01-27T09:39:30.292Z,9.77
2023-01-27T09:41:59.949Z,9.57
2023-01-27T09:44:31.199Z,9.82
2023-01-27T09:46:59.838Z,10.07
2023-01-27T09:49:36.355Z,10.27
2023-01-27T09:51:52.956Z,10.32
2023-01-27T09:54:14.447Z,11.27
2023-01-27T09:56:31.782Z,9.55
2023-01-27T09:58:51.007Z,10.50
2023-01-27T10:01:07.989Z,9.68
2023-01-27T10:03:31.698Z,10.98
2023-01-27T10:06:01.728Z,9.02
2023-01-27T10:08:26.205Z,10.25
2023-01-27T10:10:46.850Z,9.48
2023-01-27T10:13:08.878Z,12.80
2023-01-27T10:15:25.091Z,10.20
2023-01-27T10:17:43.550Z,10.60
2023-01-27T10:19:58.351Z,9.18
2023-01-27T10:22:13.368Z,12.93
2023-01-27T10:24:31.078Z,10.82
2023-01-27T10:26:42.306Z,16.95
2023-01-27T10:28:54.070Z,9.20
2023-01-27T10:31:02.998Z,12.10
2023-01-27T10:33:19.202Z,9.18
2023-01-27T10:35:31.644Z,9.98
2023-01-27T10:37:45.047Z,11.10
2023-01-27T10:40:02.293Z,10.65
2023-01-27T10:42:19.236Z,9.35
2023-01-27T10:44:41.499Z,10.85
2023-01-27T10:46:56.947Z,12.63
2023-01-27T10:49:07.366Z,10.05
2023-01-27T10:51:17.128Z,11.40
2023-01-27T10:53:28.526Z,13.80
2023-01-27T10:55:43.219Z,8.40
2023-01-27T10:57:55.402Z,7.78
2023-01-27T11:00:37.919Z,8.77
2023-01-27T11:02:42.205Z,9.00
2023-01-27T11:04:50.450Z,9.50
2023-01-27T11:06:56.866Z,8.88
2023-01-27T11:09:11.330Z,9.35
2023-01-27T11:11:31.977Z,7.45
2023-01-27T11:13:38.023Z,7.47
2023-01-27T11:15:45.422Z,8.70
2023-01-27T11:17:54.764Z,8.05
2023-01-27T11:20:07.778Z,9.70
2023-01-27T11:22:25.619Z,8.60
2023-01-27T11:24:39.141Z,8.77
2023-01-27T11:26:47.652Z,7.40
2023-01-27T11:28:58.317Z,7.57
2023-01-27T11:31:18.162Z,8.00
2023-01-27T11:33:31.044Z,7.50
2023-01-27T11:35:35.878Z,7.72
2023-01-27T11:37:43.232Z,8.43
2023-01-27T11:39:48.226Z,9.98
2023-01-27T11:41:56.535Z,9.93
2023-01-27T11:44:02.050Z,8.35
2023-01-27T11:46:14.600Z,7.63
2023-01-27T11:48:23.357Z,8.20
2023-01-27T11:50:33.553Z,7.72
2023-01-27T11:52:38.352Z,7.72
2023-01-27T11:54:49.644Z,7.78
2023-01-27T11:56:54.600Z,6.75
2023-01-27T11:59:04.147Z,7.30
2023-01-27T12:01:17.934Z,6.75
2023-01-27T12:03:27.559Z,6.35
2023-01-27T12:05:36.415Z,6.57
2023-01-27T12:07:49.126Z,7.00
2023-01-27T12:09:54.238Z,7.05
2023-01-27T12:12:13.325Z,7.13
2023-01-27T12:14:18.143Z,7.15
2023-01-27T12:16:30.179Z,8.20
2023-01-27T12:18:37.599Z,7.72
2023-01-27T12:20:44.967Z,9.10
2023-01-27T12:22:52.711Z,8.57
2023-01-27T12:25:00.996Z,8.85
2023-01-27T12:27:06.935Z,10.07
2023-01-27T12:29:19.705Z,6.20
2023-01-27T12:31:31.149Z,6.10
2023-01-27T12:33:37.176Z,7.10
2023-01-27T12:35:43.330Z,7.20
2023-01-27T12:37:49.257Z,6.63
2023-01-27T12:40:00.635Z,7.80
2023-01-27T12:42:05.631Z,7.15
2023-01-27T12:44:18.356Z,7.15
2023-01-27T12:46:30.980Z,6.57
2023-01-27T12:48:36.607Z,6.55
2023-01-27T12:50:43.379Z,6.25
2023-01-27T12:52:55.651Z,6.82
2023-01-27T12:55:00.597Z,6.20
2023-01-27T12:57:07.022Z,7.05
2023-01-27T12:59:16.724Z,6.18
2023-01-27T13:01:30.713Z,7.20
2023-01-27T13:03:42.314Z,7.13
2023-01-27T13:05:47.207Z,6.13
2023-01-27T13:07:56.335Z,6.20
2023-01-27T13:10:03.974Z,6.47
2023-01-27T13:12:22.473Z,7.75
2023-01-27T13:14:31.992Z,11.05
2023-01-27T13:16:41.063Z,6.30
2023-01-27T13:18:55.198Z,7.95
2023-01-27T13:21:16.106Z,6.70
2023-01-27T13:23:24.004Z,7.10
2023-01-27T13:25:35.304Z,7.43
2023-01-27T13:27:43.643Z,7.90
2023-01-27T13:29:57.521Z,7.80
2023-01-27T13:32:08.669Z,8.10
2023-01-27T13:34:25.140Z,8.18
2023-01-27T13:36:38.308Z,7.95
2023-01-27T13:38:51.959Z,7.65
2023-01-27T13:40:56.956Z,7.20
2023-01-27T13:43:11.666Z,7.55
2023-01-27T13:45:21.349Z,6.80
2023-01-27T13:47:32.295Z,7.00
2023-01-27T13:49:42.467Z,7.47
2023-01-27T13:51:47.508Z,6.65
2023-01-27T13:54:00.187Z,7.20
2023-01-27T13:56:18.398Z,6.70
2023-01-27T13:58:32.841Z,6.18
2023-01-27T14:00:46.070Z,6.20
2023-01-27T14:03:21.609Z,5.82
2023-01-27T14:05:42.621Z,6.25
2023-01-27T14:07:56.553Z,6.55
2023-01-27T14:10:16.630Z,6.13
2023-01-27T14:12:34.630Z,6.28
2023-01-27T14:14:58.560Z,6.63
2023-01-27T14:17:26.679Z,5.72
2023-01-27T14:19:49.695Z,5.65
2023-01-27T14:22:01.898Z,6.07
2023-01-27T14:24:21.214Z,6.47
2023-01-27T14:26:42.047Z,6.57
2023-01-27T14:29:02.761Z,6.82
2023-01-27T14:31:15.712Z,7.57
2023-01-27T14:33:27.628Z,5.78
2023-01-27T14:35:44.932Z,5.93
2023-01-27T14:37:58.863Z,7.18
2023-01-27T14:40:17.957Z,6.38
2023-01-27T14:42:32.736Z,6.45
2023-01-27T14:44:55.607Z,6.45
2023-01-27T14:47:14.243Z,5.35
2023-01-27T14:49:29.764Z,5.80
2023-01-27T14:51:42.548Z,5.28
2023-01-27T14:53:58.049Z,5.13
2023-01-27T14:56:13.954Z,5.30
2023-01-27T15:00:42.930Z,5.45
2023-01-27T15:02:50.999Z,5.68
2023-01-27T15:05:03.638Z,5.78
2023-01-27T15:07:21.518Z,5.85
2023-01-27T15:09:54.020Z,6.03
2023-01-27T15:12:21.968Z,5.65
2023-01-27T15:14:50.276Z,6.10
2023-01-27T15:17:14.635Z,6.72
2023-01-27T15:19:50.988Z,6.65
2023-01-27T15:22:27.266Z,5.35
2023-01-27T15:24:47.150Z,6.75
2023-01-27T15:26:52.625Z,5.28
2023-01-27T15:28:58.534Z,5.32
2023-01-27T15:31:26.237Z,5.75
2023-01-27T15:33:56.680Z,5.85
2023-01-27T15:36:19.634Z,5.68
2023-01-27T15:38:35.901Z,6.28
2023-01-27T15:40:59.960Z,5.95
2023-01-27T15:43:07.550Z,4.90
2023-01-27T15:45:29.391Z,5.80
2023-01-27T15:47:35.689Z,6.32
2023-01-27T15:49:45.817Z,6.20
2023-01-27T15:51:53.243Z,5.93
2023-01-27T15:54:02.519Z,5.35
2023-01-27T15:56:08.948Z,6.40
2023-01-27T15:58:27.680Z,6.22
2023-01-27T16:00:38.070Z,6.20
2023-01-27T16:02:49.682Z,6.05
2023-01-27T16:04:57.908Z,6.70
2023-01-27T16:07:05.507Z,5.93
2023-01-27T16:09:23.823Z,5.70
2023-01-27T16:11:43.202Z,5.80
2023-01-27T16:13:51.458Z,6.20
2023-01-27T16:16:40.851Z,5.90
2023-01-27T16:18:48.729Z,5.90
2023-01-27T16:21:01.161Z,6.35
2023-01-27T16:23:14.707Z,5.93
2023-01-27T16:25:31.284Z,6.93
2023-01-27T16:27:46.857Z,6.90
2023-01-27T16:29:58.385Z,6.82
2023-01-27T16:32:07.548Z,7.65
2023-01-27T16:34:26.023Z,7.03
2023-01-27T16:36:32.915Z,7.72
2023-01-27T16:38:40.796Z,7.32
2023-01-27T16:40:52.810Z,7.10
2023-01-27T16:43:02.196Z,7.95
2023-01-27T16:45:19.919Z,9.15
2023-01-27T16:47:29.144Z,10.73
2023-01-27T16:49:38.468Z,9.05
2023-01-27T16:51:43.350Z,8.98
2023-01-27T16:53:50.902Z,8.98
2023-01-27T16:56:06.548Z,8.95
2023-01-27T17:00:28.440Z,10.00
2023-01-27T17:02:34.816Z,10.50
2023-01-27T17:04:39.952Z,9.68
2023-01-27T17:06:45.836Z,9.82
2023-01-27T17:08:52.046Z,9.80
2023-01-27T17:10:59.558Z,9.82
2023-01-27T17:13:06.992Z,10.93
2023-01-27T17:15:21.789Z,12.07
2023-01-27T17:17:29.091Z,9.07
2023-01-27T17:19:36.314Z,11.10
2023-01-27T17:21:43.742Z,9.93
2023-01-27T17:23:48.611Z,10.02
2023-01-27T17:25:54.063Z,10.40
2023-01-27T17:27:59.741Z,10.60
2023-01-27T17:30:11.018Z,11.88
2023-01-27T17:32:23.319Z,11.45
2023-01-27T17:34:28.330Z,11.35
2023-01-27T17:36:33.183Z,10.60
2023-01-27T17:38:49.197Z,12.00
2023-01-27T17:40:57.330Z,11.95
2023-01-27T17:43:02.120Z,11.20
2023-01-27T17:45:30.423Z,11.13
2023-01-27T17:47:36.011Z,10.68
2023-01-27T17:49:42.366Z,10.63
2023-01-27T17:51:51.383Z,11.20
2023-01-27T17:53:57.205Z,10.85
2023-01-27T17:56:02.238Z,10.10
2023-01-27T18:00:23.649Z,11.17
2023-01-27T18:02:34.400Z,11.18
2023-01-27T18:04:43.607Z,11.18
2023-01-27T18:06:49.167Z,11.63
2023-01-27T18:08:55.999Z,12.35
2023-01-27T18:11:12.616Z,13.95
2023-01-27T18:13:38.363Z,13.90
2023-01-27T18:15:44.997Z,12.25
2023-01-27T18:18:03.496Z,11.88
2023-01-27T18:20:10.452Z,12.00
2023-01-27T18:22:18.452Z,11.57
2023-01-27T18:24:25.827Z,11.40
2023-01-27T18:26:33.654Z,9.75
2023-01-27T18:28:40.447Z,9.60
2023-01-27T18:30:49.684Z,9.48
2023-01-27T18:33:02.465Z,9.43
2023-01-27T18:35:30.408Z,8.07
2023-01-27T18:37:37.620Z,9.63
2023-01-27T18:39:44.307Z,10.05
2023-01-27T18:41:50.161Z,12.95
2023-01-27T18:43:55.119Z,10.30
2023-01-27T18:46:00.122Z,9.60
2023-01-27T18:48:05.079Z,8.70
2023-01-27T18:50:20.931Z,8.98
2023-01-27T18:52:26.268Z,9.50
2023-01-27T18:54:31.136Z,8.93
2023-01-27T18:56:36.081Z,7.82
2023-01-27T18:58:41.095Z,7.40
2023-01-27T19:00:49.370Z,7.75
2023-01-27T19:02:57.202Z,8.65
2023-01-27T19:05:02.039Z,7.78
2023-01-27T19:07:16.007Z,7.47
2023-01-27T19:09:21.059Z,7.63
2023-01-27T19:11:25.940Z,7.25
2023-01-27T19:13:34.432Z,7.65
2023-01-27T19:15:43.317Z,8.07
2023-01-27T19:17:48.591Z,8.48
2023-01-27T19:19:53.585Z,6.82
2023-01-27T19:21:58.540Z,5.82
2023-01-27T19:24:06.267Z,6.22
2023-01-27T19:26:18.106Z,5.88
2023-01-27T19:28:29.713Z,5.90
2023-01-27T19:30:37.785Z,7.90
2023-01-27T19:32:42.654Z,5.90
2023-01-27T19:34:47.471Z,6.50
2023-01-27T19:36:52.347Z,6.13
2023-01-27T19:39:02.418Z,5.90
2023-01-27T19:41:10.893Z,6.38
2023-01-27T19:43:17.404Z,5.45
2023-01-27T19:45:24.254Z,5.38
2023-01-27T19:47:29.240Z,6.40
2023-01-27T19:49:34.102Z,5.32
2023-01-27T19:51:38.935Z,5.88
2023-01-27T19:53:45.365Z,5.40
2023-01-27T19:55:51.412Z,5.65
2023-01-27T19:57:58.975Z,5.65
2023-01-27T20:00:05.401Z,5.75
2023-01-27T20:02:16.694Z,5.88
2023-01-27T20:04:21.548Z,5.45
2023-01-27T20:06:28.062Z,4.45
2023-01-27T20:08:32.897Z,5.00
2023-01-27T20:10:37.768Z,5.03
2023-01-27T20:12:42.604Z,4.93
2023-01-27T20:14:50.170Z,5.55
2023-01-27T20:16:55.228Z,4.57
2023-01-27T20:19:00.299Z,5.50
2023-01-27T20:21:05.156Z,5.18
2023-01-27T20:23:11.679Z,4.95
2023-01-27T20:25:17.859Z,5.40
2023-01-27T20:27:22.782Z,4.78
2023-01-27T20:29:27.998Z,5.50
2023-01-27T20:31:35.588Z,4.82
2023-01-27T20:33:40.515Z,5.00
2023-01-27T20:35:45.376Z,4.70
2023-01-27T20:37:51.959Z,4.65
2023-01-27T20:39:56.797Z,4.75
2023-01-27T20:42:01.677Z,4.45
2023-01-27T20:44:06.634Z,4.30
2023-01-27T20:46:13.189Z,4.53
2023-01-27T20:48:20.676Z,4.57
2023-01-27T20:50:26.342Z,4.53
2023-01-27T20:52:31.777Z,4.60
2023-01-27T20:54:37.074Z,5.07
2023-01-27T20:56:42.071Z,4.78
2023-01-27T20:58:47.383Z,4.28
2023-01-27T21:00:52.324Z,4.30
2023-01-27T21:02:57.379Z,4.30
2023-01-27T21:05:04.848Z,4.60
2023-01-27T21:07:09.768Z,4.43
2023-01-27T21:09:14.628Z,4.80
2023-01-27T21:11:21.460Z,3.90
2023-01-27T21:13:26.355Z,4.70
2023-01-27T21:15:31.269Z,4.40
2023-01-27T21:17:36.422Z,4.15
2023-01-27T21:21:49.259Z,3.97
2023-01-27T21:23:54.361Z,3.85
2023-01-27T21:28:03.894Z,4.60
2023-01-27T21:30:10.305Z,4.30
2023-01-27T21:32:15.200Z,4.32
2023-01-27T21:34:20.354Z,4.60
2023-01-27T21:38:32.488Z,4.00
2023-01-27T21:40:40.225Z,4.22
2023-01-27T21:43:09.276Z,4.22
2023-01-27T21:45:13.581Z,4.60
2023-01-27T21:47:19.899Z,4.55
2023-01-27T21:49:25.027Z,5.22
2023-01-27T21:51:29.822Z,4.80
2023-01-27T21:53:37.283Z,4.57
2023-01-27T21:55:42.095Z,5.15
2023-01-27T21:57:48.597Z,4.28
2023-01-27T21:59:53.461Z,4.53
2023-01-27T22:01:58.288Z,6.93
2023-01-27T22:04:03.211Z,4.45
2023-01-27T22:06:08.928Z,6.75
2023-01-27T22:08:15.066Z,6.30
2023-01-27T22:10:25.889Z,4.90
2023-01-27T22:12:30.818Z,4.40
2023-01-27T22:14:35.870Z,5.03
2023-01-27T22:16:40.731Z,4.60
2023-01-27T22:18:45.812Z,4.63
2023-01-27T22:20:50.650Z,5.53
2023-01-27T22:22:55.530Z,5.47
2023-01-27T22:25:00.454Z,5.15
2023-01-27T22:27:07.929Z,5.43
2023-01-27T22:29:13.500Z,5.22
2023-01-27T22:31:18.409Z,4.78
2023-01-27T22:33:23.234Z,4.88
2023-01-27T22:35:28.051Z,5.70
2023-01-27T22:37:33.745Z,5.00
2023-01-27T22:39:38.624Z,4.55
2023-01-27T22:41:43.415Z,4.97
2023-01-27T22:43:52.171Z,5.00
2023-01-27T22:45:57.049Z,5.57
2023-01-27T22:48:01.944Z,4.93
2023-01-27T22:50:07.164Z,4.97
2023-01-27T22:54:16.564Z,4.40
2023-01-27T22:56:21.448Z,4.70
2023-01-27T22:58:26.291Z,5.00
2023-01-27T23:00:33.784Z,4.72
2023-01-27T23:02:39.095Z,4.47
2023-01-27T23:04:43.987Z,5.00
2023-01-27T23:06:48.866Z,5.80
2023-01-27T23:08:53.701Z,5.43
2023-01-27T23:11:03.186Z,4.85
2023-01-27T23:13:08.018Z,5.55
2023-01-27T23:15:13.920Z,4.70
2023-01-27T23:17:21.560Z,5.18
2023-01-27T23:19:26.455Z,5.22
2023-01-27T23:21:32.379Z,4.68
2023-01-27T23:23:37.963Z,5.03
2023-01-27T23:25:45.683Z,4.82
2023-01-27T23:27:50.515Z,5.20
2023-01-27T23:29:55.517Z,4.45
2023-01-27T23:32:00.481Z,4.47
2023-01-27T23:34:08.579Z,5.30
2023-01-27T23:36:14.273Z,5.05
2023-01-27T23:38:31.750Z,5.82
2023-01-27T23:40:38.000Z,5.32
2023-01-27T23:44:47.636Z,6.40
2023-01-27T23:46:52.514Z,6.18
2023-01-27T23:48:58.313Z,5.53
2023-01-27T23:51:11.624Z,4.93
2023-01-27T23:53:16.527Z,5.40
2023-01-27T23:55:21.368Z,5.30
2023-01-27T23:57:26.207Z,5.47
2023-01-27T23:59:31.228Z,5.20
